createdAt,value
2023-03-28T00:00:17.799Z,98916.15
2023-03-28T00:03:08.584Z,98916.05
2023-03-28T00:05:42.448Z,98912.82
2023-03-28T00:08:14.876Z,98911.30
2023-03-28T00:10:45.896Z,98914.80
2023-03-28T00:13:20.122Z,98910.80
2023-03-28T00:15:53.210Z,98919.54
2023-03-28T00:18:24.074Z,98915.04
2023-03-28T00:20:55.025Z,98915.15
2023-03-28T00:23:26.111Z,98912.20
2023-03-28T00:25:57.464Z,98913.16
2023-03-28T00:28:28.556Z,98916.11
2023-03-28T00:31:04.737Z,98915.49
2023-03-28T00:33:35.897Z,98917.61
2023-03-28T00:36:10.500Z,98914.13
2023-03-28T00:38:41.954Z,98914.02
2023-03-28T00:41:16.232Z,98916.64
2023-03-28T00:43:47.475Z,98913.29
2023-03-28T00:46:20.250Z,98911.79
2023-03-28T00:48:52.203Z,98918.65
2023-03-28T00:51:24.022Z,98920.31
2023-03-28T00:53:54.725Z,98925.80
2023-03-28T00:56:25.474Z,98925.39
2023-03-28T00:58:56.478Z,98931.81
2023-03-28T01:01:27.184Z,98929.05
2023-03-28T01:04:02.420Z,98932.13
2023-03-28T01:06:34.706Z,98929.48
2023-03-28T01:09:06.663Z,98931.33
2023-03-28T01:11:38.575Z,98924.77
2023-03-28T01:14:09.487Z,98928.09
2023-03-28T01:16:41.579Z,98926.30
2023-03-28T01:19:13.581Z,98920.89
2023-03-28T01:22:07.555Z,98922.87
2023-03-28T01:24:55.430Z,98929.19
2023-03-28T01:27:26.801Z,98935.34
2023-03-28T01:30:03.573Z,98921.01
2023-03-28T01:32:42.303Z,98921.31
2023-03-28T01:35:20.080Z,98930.08
2023-03-28T01:37:52.046Z,98921.90
2023-03-28T01:40:31.424Z,98923.45
2023-03-28T01:43:06.781Z,98930.40
2023-03-28T01:45:39.593Z,98928.05
2023-03-28T01:48:11.529Z,98928.42
2023-03-28T01:50:43.387Z,98937.23
2023-03-28T01:53:16.370Z,98940.38
2023-03-28T01:55:49.645Z,98947.69
2023-03-28T01:58:22.578Z,98953.05
2023-03-28T02:00:55.099Z,98955.34
2023-03-28T02:03:26.710Z,98960.72
2023-03-28T02:05:58.452Z,98962.04
2023-03-28T02:08:30.658Z,98969.74
2023-03-28T02:11:01.542Z,98974.88
2023-03-28T02:13:34.035Z,98973.88
2023-03-28T02:16:05.116Z,98975.43
2023-03-28T02:18:38.237Z,98976.73
2023-03-28T02:21:10.462Z,98983.52
2023-03-28T02:23:42.737Z,98983.09
2023-03-28T02:26:13.601Z,98983.59
2023-03-28T02:28:44.745Z,98987.69
2023-03-28T02:31:15.564Z,98982.66
2023-03-28T02:33:46.933Z,98982.63
2023-03-28T02:36:30.430Z,98979.90
2023-03-28T02:39:21.592Z,98983.88
2023-03-28T02:41:56.070Z,98989.50
2023-03-28T02:44:49.595Z,98995.02
2023-03-28T02:47:21.273Z,98997.61
2023-03-28T02:49:55.226Z,99003.63
2023-03-28T02:52:35.028Z,98995.40
2023-03-28T02:55:07.904Z,99005.70
2023-03-28T02:57:39.203Z,99004.39
2023-03-28T03:00:12.377Z,99015.66
2023-03-28T03:02:43.283Z,99015.90
2023-03-28T03:05:14.506Z,99024.91
2023-03-28T03:07:45.377Z,99027.83
2023-03-28T03:10:17.275Z,99035.17
2023-03-28T03:12:47.930Z,99039.92
2023-03-28T03:15:19.129Z,99045.07
2023-03-28T03:17:50.019Z,99041.86
2023-03-28T03:20:20.833Z,99052.59
2023-03-28T03:22:51.594Z,99053.28
2023-03-28T03:25:22.369Z,99053.44
2023-03-28T03:27:53.254Z,99059.92
2023-03-28T03:30:24.102Z,99061.44
2023-03-28T03:32:56.185Z,99064.79
2023-03-28T03:35:33.420Z,99068.58
2023-03-28T03:38:04.463Z,99077.92
2023-03-28T03:40:35.407Z,99084.58
2023-03-28T03:43:06.168Z,99079.89
2023-03-28T03:45:38.064Z,99084.79
2023-03-28T03:48:08.912Z,99086.85
2023-03-28T03:50:39.831Z,99095.08
2023-03-28T03:53:10.898Z,99095.96
2023-03-28T03:55:41.722Z,99097.69
2023-03-28T03:58:12.607Z,99100.54
2023-03-28T04:00:44.926Z,99096.81
2023-03-28T04:03:24.486Z,99107.21
2023-03-28T04:05:58.262Z,99105.99
2023-03-28T04:08:29.262Z,99114.08
2023-03-28T04:11:00.001Z,99120.33
2023-03-28T04:13:30.610Z,99124.14
2023-03-28T04:16:01.734Z,99135.55
2023-03-28T04:18:34.360Z,99142.11
2023-03-28T04:21:05.096Z,99149.76
2023-03-28T04:23:38.836Z,99154.20
2023-03-28T04:26:09.616Z,99159.11
2023-03-28T04:28:40.428Z,99163.63
2023-03-28T04:31:12.328Z,99171.30
2023-03-28T04:33:45.415Z,99177.13
2023-03-28T04:36:16.910Z,99177.15
2023-03-28T04:38:47.682Z,99186.42
2023-03-28T04:41:18.689Z,99195.33
2023-03-28T04:43:49.542Z,99196.95
2023-03-28T04:46:20.429Z,99202.52
2023-03-28T04:48:56.484Z,99210.77
2023-03-28T04:51:28.862Z,99214.06
2023-03-28T04:53:59.727Z,99215.29
2023-03-28T04:56:31.030Z,99222.86
2023-03-28T04:59:01.974Z,99231.11
2023-03-28T05:01:33.288Z,99230.14
2023-03-28T05:04:04.196Z,99236.00
2023-03-28T05:06:35.963Z,99245.15
2023-03-28T05:09:09.178Z,99248.55
2023-03-28T05:11:40.279Z,99248.71
2023-03-28T05:14:11.109Z,99252.73
2023-03-28T05:16:42.117Z,99257.36
2023-03-28T05:19:13.151Z,99253.92
2023-03-28T05:21:44.127Z,99256.95
2023-03-28T05:24:15.002Z,99262.80
2023-03-28T05:26:46.130Z,99266.08
2023-03-28T05:29:16.939Z,99268.77
2023-03-28T05:31:47.952Z,99278.78
2023-03-28T05:34:18.829Z,99287.30
2023-03-28T05:36:49.734Z,99294.69
2023-03-28T05:39:20.690Z,99289.02
2023-03-28T05:41:51.609Z,99297.41
2023-03-28T05:44:22.514Z,99300.20
2023-03-28T05:46:53.454Z,99304.39
2023-03-28T05:49:24.328Z,99308.94
2023-03-28T05:51:55.153Z,99315.10
2023-03-28T05:54:25.853Z,99321.29
2023-03-28T05:56:56.766Z,99327.27
2023-03-28T05:59:28.024Z,99326.96
2023-03-28T06:01:58.916Z,99327.45
2023-03-28T06:04:29.904Z,99330.64
2023-03-28T06:07:03.011Z,99333.42
2023-03-28T06:09:36.346Z,99331.73
2023-03-28T06:12:07.572Z,99339.12
2023-03-28T06:14:38.368Z,99344.33
2023-03-28T06:17:09.314Z,99353.08
2023-03-28T06:19:40.450Z,99363.73
2023-03-28T06:22:11.506Z,99372.92
2023-03-28T06:24:42.480Z,99382.59
2023-03-28T06:27:13.347Z,99391.80
2023-03-28T06:29:44.290Z,99401.57
2023-03-28T06:32:15.497Z,99406.95
2023-03-28T06:34:46.510Z,99412.55
2023-03-28T06:37:17.365Z,99421.71
2023-03-28T06:39:50.882Z,99426.42
2023-03-28T06:42:21.751Z,99426.63
2023-03-28T06:44:52.733Z,99440.17
2023-03-28T06:47:23.558Z,99445.89
2023-03-28T06:49:54.350Z,99448.14
2023-03-28T06:52:25.298Z,99446.89
2023-03-28T06:54:56.310Z,99456.08
2023-03-28T06:57:27.169Z,99464.98
2023-03-28T06:59:58.163Z,99472.16
2023-03-28T07:02:28.981Z,99482.67
2023-03-28T07:04:59.785Z,99494.02
2023-03-28T07:07:30.738Z,99506.35
2023-03-28T07:10:01.343Z,99504.67
2023-03-28T07:12:32.198Z,99512.62
2023-03-28T07:15:03.244Z,99523.17
2023-03-28T07:17:34.286Z,99533.22
2023-03-28T07:20:05.533Z,99537.68
2023-03-28T07:22:36.478Z,99545.11
2023-03-28T07:25:09.103Z,99551.29
2023-03-28T07:27:40.060Z,99555.78
2023-03-28T07:30:12.014Z,99561.31
2023-03-28T07:32:54.336Z,99565.09
2023-03-28T07:35:27.704Z,99572.34
2023-03-28T07:37:58.547Z,99573.58
2023-03-28T07:40:29.450Z,99577.19
2023-03-28T07:43:00.521Z,99580.58
2023-03-28T07:45:31.615Z,99584.88
2023-03-28T07:48:02.827Z,99589.34
2023-03-28T07:50:34.157Z,99592.89
2023-03-28T07:53:05.420Z,99597.17
2023-03-28T07:58:12.594Z,99603.08
2023-03-28T08:00:45.666Z,99604.46
2023-03-28T08:03:16.803Z,99616.55
2023-03-28T08:05:52.106Z,99625.16
2023-03-28T08:08:22.989Z,99631.96
2023-03-28T08:10:53.780Z,99633.14
2023-03-28T08:13:24.636Z,99640.60
2023-03-28T08:15:56.026Z,99646.08
2023-03-28T08:18:27.197Z,99649.41
2023-03-28T08:21:01.314Z,99652.98
2023-03-28T08:23:32.287Z,99664.31
2023-03-28T08:26:05.066Z,99669.95
2023-03-28T08:28:36.400Z,99676.03
2023-03-28T08:31:14.264Z,99682.77
2023-03-28T08:33:45.714Z,99685.91
2023-03-28T08:36:16.676Z,99689.31
2023-03-28T08:38:47.882Z,99691.81
2023-03-28T08:41:22.631Z,99696.66
2023-03-28T08:43:59.732Z,99702.23
2023-03-28T08:46:30.624Z,99706.23
2023-03-28T08:49:01.893Z,99712.05
2023-03-28T08:51:35.527Z,99718.27
2023-03-28T08:54:08.258Z,99724.08
2023-03-28T08:56:43.989Z,99724.38
2023-03-28T08:59:16.850Z,99727.00
2023-03-28T09:01:47.639Z,99734.38
2023-03-28T09:04:23.384Z,99742.77
2023-03-28T09:06:54.875Z,99746.02
2023-03-28T09:09:28.785Z,99752.61
2023-03-28T09:12:02.620Z,99759.77
2023-03-28T09:14:46.345Z,99765.07
2023-03-28T09:17:17.851Z,99766.63
2023-03-28T09:19:53.065Z,99768.27
2023-03-28T09:22:27.458Z,99773.31
2023-03-28T09:25:00.924Z,99774.34
2023-03-28T09:27:32.846Z,99774.36
2023-03-28T09:30:08.368Z,99777.73
2023-03-28T09:32:40.024Z,99784.63
2023-03-28T09:35:15.428Z,99789.11
2023-03-28T09:37:47.115Z,99797.70
2023-03-28T09:40:20.171Z,99805.98
2023-03-28T09:42:53.294Z,99807.35
2023-03-28T09:45:27.259Z,99810.15
2023-03-28T09:47:58.295Z,99818.16
2023-03-28T09:50:29.186Z,99824.44
2023-03-28T09:53:00.343Z,99823.45
2023-03-28T09:55:31.645Z,99830.11
2023-03-28T09:58:03.596Z,99833.16
2023-03-28T10:00:37.592Z,99839.53
2023-03-28T10:03:11.412Z,99844.65
2023-03-28T10:05:43.454Z,99845.84
2023-03-28T10:08:23.069Z,99842.95
2023-03-28T10:10:57.814Z,99845.48
2023-03-28T10:13:28.693Z,99846.33
2023-03-28T10:16:00.090Z,99843.20
2023-03-28T10:18:31.553Z,99845.77
2023-03-28T10:21:05.074Z,99853.18
2023-03-28T10:23:37.056Z,99857.55
2023-03-28T10:26:09.008Z,99860.43
2023-03-28T10:28:39.934Z,99865.72
2023-03-28T10:31:15.959Z,99872.45
2023-03-28T10:33:47.171Z,99874.38
2023-03-28T10:36:25.441Z,99875.78
2023-03-28T10:38:56.185Z,99876.27
2023-03-28T10:41:27.195Z,99876.59
2023-03-28T10:43:58.398Z,99882.08
2023-03-28T10:46:30.091Z,99880.80
2023-03-28T10:49:03.001Z,99883.02
2023-03-28T10:51:34.004Z,99889.36
2023-03-28T10:54:11.737Z,99889.66
2023-03-28T10:56:44.609Z,99892.39
2023-03-28T10:59:17.794Z,99894.45
2023-03-28T11:01:51.874Z,99895.41
2023-03-28T11:04:27.546Z,99895.77
2023-03-28T11:06:59.819Z,99895.89
2023-03-28T11:09:32.563Z,99896.26
2023-03-28T11:12:06.954Z,99903.39
2023-03-28T11:14:48.067Z,99901.48
2023-03-28T11:17:21.100Z,99903.98
2023-03-28T11:19:57.543Z,99909.50
2023-03-28T11:22:31.072Z,99914.79
2023-03-28T11:25:04.118Z,99911.96
2023-03-28T11:27:36.366Z,99913.02
2023-03-28T11:30:11.107Z,99912.98
2023-03-28T11:32:43.068Z,99914.77
2023-03-28T11:35:17.183Z,99917.59
2023-03-28T11:37:49.061Z,99915.81
2023-03-28T11:40:22.545Z,99919.76
2023-03-28T11:42:55.354Z,99919.95
2023-03-28T11:45:37.945Z,99923.26
2023-03-28T11:48:19.470Z,99922.09
2023-03-28T11:50:52.990Z,99926.40
2023-03-28T11:53:25.186Z,99928.88
2023-03-28T11:55:58.667Z,99929.14
2023-03-28T11:58:29.918Z,99938.14
2023-03-28T12:01:03.055Z,99934.58
2023-03-28T12:03:37.588Z,99935.19
2023-03-28T12:06:11.621Z,99938.48
2023-03-28T12:08:43.515Z,99940.41
2023-03-28T12:11:16.656Z,99943.49
2023-03-28T12:13:53.207Z,99945.42
2023-03-28T12:16:34.750Z,99948.83
2023-03-28T12:19:05.719Z,99951.25
2023-03-28T12:21:37.191Z,99953.79
2023-03-28T12:24:08.768Z,99951.25
2023-03-28T12:26:42.662Z,99952.83
2023-03-28T12:29:16.196Z,99956.36
2023-03-28T12:31:48.154Z,99954.58
2023-03-28T12:34:19.608Z,99955.39
2023-03-28T12:36:51.173Z,99953.53
2023-03-28T12:39:25.862Z,99952.69
2023-03-28T12:41:56.685Z,99954.80
2023-03-28T12:44:27.905Z,99956.70
2023-03-28T12:47:00.866Z,99955.20
2023-03-28T12:49:34.018Z,99960.38
2023-03-28T12:52:05.142Z,99966.46
2023-03-28T12:54:36.338Z,99966.52
2023-03-28T12:57:15.510Z,99963.02
2023-03-28T13:00:09.837Z,99967.75
2023-03-28T13:02:42.354Z,99965.39
2023-03-28T13:05:16.220Z,99965.67
2023-03-28T13:07:57.485Z,99968.54
2023-03-28T13:10:31.180Z,99981.47
2023-03-28T13:13:07.199Z,99981.54
2023-03-28T13:15:39.624Z,99981.23
2023-03-28T13:18:27.874Z,99979.10
2023-03-28T13:20:59.647Z,99980.19
2023-03-28T13:23:46.171Z,99988.69
2023-03-28T13:26:16.886Z,99993.05
2023-03-28T13:28:48.348Z,99998.52
2023-03-28T13:31:23.268Z,100004.16
2023-03-28T13:33:58.862Z,100007.27
2023-03-28T13:36:30.868Z,100010.98
2023-03-28T13:39:20.300Z,100017.65
2023-03-28T13:42:00.980Z,100023.96
2023-03-28T13:44:33.496Z,100029.61
2023-03-28T13:47:04.487Z,100039.92
2023-03-28T13:49:37.560Z,100041.10
2023-03-28T13:52:09.103Z,100050.27
2023-03-28T13:54:40.036Z,100053.11
2023-03-28T13:57:14.812Z,100054.41
2023-03-28T13:59:48.266Z,100058.04
2023-03-28T14:02:20.267Z,100063.02
2023-03-28T14:04:55.263Z,100066.34
2023-03-28T14:07:27.333Z,100072.73
2023-03-28T14:09:58.680Z,100083.05
2023-03-28T14:12:30.292Z,100088.50
2023-03-28T14:15:01.613Z,100089.58
2023-03-28T14:17:33.243Z,100094.62
2023-03-28T14:20:05.783Z,100095.04
2023-03-28T14:22:45.716Z,100100.16
2023-03-28T14:25:23.803Z,100105.86
2023-03-28T14:27:55.383Z,100104.45
2023-03-28T14:30:26.942Z,100106.31
2023-03-28T14:33:02.346Z,100107.92
2023-03-28T14:35:33.930Z,100112.18
2023-03-28T14:38:05.654Z,100118.91
2023-03-28T14:40:37.834Z,100121.48
2023-03-28T14:43:10.318Z,100128.23
2023-03-28T14:45:42.709Z,100131.42
2023-03-28T14:48:15.877Z,100141.59
2023-03-28T14:50:46.942Z,100152.94
2023-03-28T14:53:20.955Z,100159.44
2023-03-28T14:55:52.243Z,100160.67
2023-03-28T14:58:24.126Z,100168.77
2023-03-28T15:00:56.031Z,100172.99
2023-03-28T15:03:28.869Z,100177.47
2023-03-28T15:05:59.821Z,100179.08
2023-03-28T15:08:34.608Z,100183.38
2023-03-28T15:11:06.635Z,100189.42
2023-03-28T15:13:38.109Z,100195.00
2023-03-28T15:16:09.547Z,100199.48
2023-03-28T15:18:44.524Z,100206.83
2023-03-28T15:21:15.743Z,100216.95
2023-03-28T15:23:50.013Z,100226.09
2023-03-28T15:26:22.512Z,100252.02
2023-03-28T15:28:53.351Z,100263.95
2023-03-28T15:31:24.319Z,100277.04
2023-03-28T15:33:55.445Z,100276.09
2023-03-28T15:36:30.956Z,100274.06
2023-03-28T15:39:02.741Z,100267.65
2023-03-28T15:41:43.590Z,100265.58
2023-03-28T15:44:23.797Z,100268.41
2023-03-28T15:46:57.738Z,100277.41
2023-03-28T15:49:28.788Z,100281.34
2023-03-28T15:52:01.847Z,100285.80
2023-03-28T15:54:32.906Z,100296.05
2023-03-28T15:57:04.245Z,100309.11
2023-03-28T15:59:36.221Z,100325.30
2023-03-28T16:02:37.405Z,100334.77
2023-03-28T16:05:09.169Z,100338.41
2023-03-28T16:07:48.638Z,100348.13
2023-03-28T16:10:20.450Z,100354.02
2023-03-28T16:12:51.873Z,100353.01
2023-03-28T16:15:22.812Z,100356.01
2023-03-28T16:17:55.913Z,100360.13
2023-03-28T16:20:26.657Z,100362.31
2023-03-28T16:22:57.492Z,100369.88
2023-03-28T16:25:29.028Z,100363.61
2023-03-28T16:28:07.091Z,100367.52
2023-03-28T16:30:38.885Z,100373.95
2023-03-28T16:33:10.111Z,100380.27
2023-03-28T16:35:41.286Z,100388.98
2023-03-28T16:38:12.951Z,100393.64
2023-03-28T16:40:45.479Z,100407.87
2023-03-28T16:43:16.907Z,100415.42
2023-03-28T16:45:51.017Z,100422.14
2023-03-28T16:48:22.058Z,100428.22
2023-03-28T16:50:56.843Z,100436.27
2023-03-28T16:53:27.836Z,100439.05
2023-03-28T16:55:58.926Z,100448.06
2023-03-28T16:58:30.426Z,100459.75
2023-03-28T17:01:04.509Z,100464.58
2023-03-28T17:03:35.680Z,100467.60
2023-03-28T17:06:08.227Z,100470.45
2023-03-28T17:08:41.521Z,100475.08
2023-03-28T17:11:13.060Z,100477.76
2023-03-28T17:13:44.061Z,100477.49
2023-03-28T17:16:15.103Z,100480.39
2023-03-28T17:18:46.029Z,100482.95
2023-03-28T17:21:17.381Z,100486.98
2023-03-28T17:23:48.628Z,100492.16
2023-03-28T17:26:19.510Z,100494.90
2023-03-28T17:28:51.794Z,100500.27
2023-03-28T17:31:22.853Z,100500.14
2023-03-28T17:33:53.721Z,100500.69
2023-03-28T17:36:25.482Z,100505.73
2023-03-28T17:38:56.828Z,100507.24
2023-03-28T17:41:28.026Z,100508.91
2023-03-28T17:44:00.150Z,100507.73
2023-03-28T17:46:31.184Z,100513.52
2023-03-28T17:49:02.455Z,100526.41
2023-03-28T17:51:33.402Z,100528.92
2023-03-28T17:54:07.065Z,100527.94
2023-03-28T17:56:37.927Z,100533.04
2023-03-28T17:59:08.669Z,100535.21
2023-03-28T18:01:39.728Z,100542.23
2023-03-28T18:04:11.650Z,100547.95
2023-03-28T18:06:49.981Z,100547.77
2023-03-28T18:09:21.678Z,100553.21
2023-03-28T18:11:52.779Z,100551.68
2023-03-28T18:14:23.741Z,100555.10
2023-03-28T18:16:56.486Z,100562.58
2023-03-28T18:19:27.330Z,100569.28
2023-03-28T18:21:58.394Z,100574.36
2023-03-28T18:24:31.385Z,100583.06
2023-03-28T18:27:04.849Z,100587.33
2023-03-28T18:29:35.998Z,100598.34
2023-03-28T18:32:09.561Z,100600.26
2023-03-28T18:34:41.612Z,100607.92
2023-03-28T18:37:13.333Z,100608.81
2023-03-28T18:39:45.614Z,100613.55
2023-03-28T18:42:16.595Z,100612.58
2023-03-28T18:44:47.656Z,100617.94
2023-03-28T18:47:22.219Z,100619.61
2023-03-28T18:49:53.296Z,100627.77
2023-03-28T18:52:34.424Z,100629.14
2023-03-28T18:55:12.292Z,100638.01
2023-03-28T18:57:43.330Z,100643.55
2023-03-28T19:00:18.830Z,100650.48
2023-03-28T19:02:50.518Z,100651.98
2023-03-28T19:05:22.245Z,100654.33
2023-03-28T19:07:53.156Z,100665.07
2023-03-28T19:10:23.926Z,100665.88
2023-03-28T19:12:56.249Z,100672.05
2023-03-28T19:15:29.133Z,100674.27
2023-03-28T19:18:02.974Z,100675.70
2023-03-28T19:20:38.441Z,100679.02
2023-03-28T19:23:09.556Z,100680.85
2023-03-28T19:25:42.674Z,100685.28
2023-03-28T19:28:16.175Z,100685.47
2023-03-28T19:30:47.962Z,100687.13
2023-03-28T19:33:22.821Z,100687.91
2023-03-28T19:35:54.248Z,100689.39
2023-03-28T19:38:31.095Z,100687.08
2023-03-28T19:41:10.732Z,100691.58
2023-03-28T19:43:42.955Z,100699.56
2023-03-28T19:46:14.480Z,100698.56
2023-03-28T19:48:45.471Z,100701.52
2023-03-28T19:51:18.864Z,100700.61
2023-03-28T19:53:49.752Z,100702.57
2023-03-28T19:56:20.651Z,100706.05
2023-03-28T19:58:52.092Z,100708.49
2023-03-28T20:01:23.124Z,100711.79
2023-03-28T20:03:54.947Z,100717.09
2023-03-28T20:06:26.866Z,100722.75
2023-03-28T20:08:57.925Z,100725.45
2023-03-28T20:11:29.840Z,100728.75
2023-03-28T20:14:01.637Z,100730.48
2023-03-28T20:16:44.925Z,100733.48
2023-03-28T20:19:18.204Z,100736.26
2023-03-28T20:21:49.242Z,100738.39
2023-03-28T20:24:20.138Z,100743.47
2023-03-28T20:26:51.559Z,100751.79
2023-03-28T20:29:22.243Z,100754.90
2023-03-28T20:31:56.923Z,100758.23
2023-03-28T20:34:32.751Z,100767.38
2023-03-28T20:37:13.982Z,100767.84
2023-03-28T20:39:48.586Z,100771.37
2023-03-28T20:42:21.108Z,100775.33
2023-03-28T20:44:59.021Z,100772.67
2023-03-28T20:47:30.562Z,100774.79
2023-03-28T20:50:07.337Z,100772.98
2023-03-28T20:52:46.760Z,100771.80
2023-03-28T20:55:31.483Z,100777.80
2023-03-28T20:58:08.050Z,100777.98
2023-03-28T21:00:40.216Z,100782.29
2023-03-28T21:03:12.352Z,100783.02
2023-03-28T21:05:46.174Z,100787.90
2023-03-28T21:08:19.760Z,100786.46
2023-03-28T21:10:54.610Z,100785.34
2023-03-28T21:13:26.521Z,100786.52
2023-03-28T21:15:57.575Z,100789.70
2023-03-28T21:18:29.027Z,100793.63
2023-03-28T21:21:00.211Z,100798.54
2023-03-28T21:23:31.226Z,100801.19
2023-03-28T21:26:02.229Z,100804.94
2023-03-28T21:28:33.594Z,100807.66
2023-03-28T21:31:05.191Z,100810.95
2023-03-28T21:33:36.715Z,100812.41
2023-03-28T21:36:08.501Z,100811.98
2023-03-28T21:38:39.303Z,100810.94
2023-03-28T21:41:11.407Z,100810.34
2023-03-28T21:43:42.397Z,100813.06
2023-03-28T21:46:13.824Z,100813.13
2023-03-28T21:48:48.278Z,100817.15
2023-03-28T21:51:19.577Z,100817.48
2023-03-28T21:53:50.510Z,100819.14
2023-03-28T21:56:21.532Z,100815.84
2023-03-28T21:58:52.621Z,100811.48
2023-03-28T22:01:23.530Z,100809.86
2023-03-28T22:03:54.469Z,100806.39
2023-03-28T22:06:26.361Z,100809.59
2023-03-28T22:08:57.236Z,100812.70
2023-03-28T22:11:30.874Z,100815.63
2023-03-28T22:14:05.495Z,100816.99
2023-03-28T22:16:37.656Z,100819.80
2023-03-28T22:19:09.844Z,100820.17
2023-03-28T22:21:40.844Z,100818.06
2023-03-28T22:24:13.424Z,100819.25
2023-03-28T22:26:45.131Z,100817.02
2023-03-28T22:29:17.185Z,100823.08
2023-03-28T22:31:48.046Z,100825.14
2023-03-28T22:34:21.029Z,100824.94
2023-03-28T22:36:53.581Z,100823.50
2023-03-28T22:39:25.400Z,100828.06
2023-03-28T22:41:56.327Z,100826.20
2023-03-28T22:44:28.096Z,100828.86
2023-03-28T22:47:02.492Z,100834.86
2023-03-28T22:49:34.225Z,100834.11
2023-03-28T22:52:06.455Z,100830.20
2023-03-28T22:54:37.559Z,100830.19
2023-03-28T22:57:08.557Z,100832.73
2023-03-28T22:59:40.190Z,100837.53
2023-03-28T23:02:11.610Z,100839.52
2023-03-28T23:04:42.505Z,100844.97
2023-03-28T23:07:13.696Z,100846.00
2023-03-28T23:09:44.524Z,100846.20
2023-03-28T23:12:15.412Z,100845.23
2023-03-28T23:14:47.760Z,100846.77
2023-03-28T23:17:19.198Z,100851.31
2023-03-28T23:19:50.311Z,100856.45
2023-03-28T23:22:21.688Z,100861.71
2023-03-28T23:24:52.477Z,100863.47
2023-03-28T23:27:23.301Z,100863.17
2023-03-28T23:29:54.127Z,100857.87
2023-03-28T23:32:25.024Z,100859.11
2023-03-28T23:34:55.819Z,100856.98
2023-03-28T23:37:27.629Z,100857.20
2023-03-28T23:39:58.664Z,100854.66
2023-03-28T23:42:29.607Z,100857.63
2023-03-28T23:45:00.532Z,100858.43
2023-03-28T23:47:31.237Z,100863.36
2023-03-28T23:50:02.235Z,100862.77
2023-03-28T23:52:33.021Z,100864.06
2023-03-28T23:55:03.976Z,100863.42
2023-03-28T23:57:34.850Z,100865.05
